Time;durP1;ratioP1;P1;durP2;ratioP2;P2;SDS_P1;SDS_P2;PMS_P1;PMS_P2;Temp;Humidity;BMP_temperature;BMP_pressure;BME280_temperature;BME280_humidity;BME280_pressure;Samples;Min_cycle;Max_cycle;Signal;HPM_P1;HPM_P2
2022/07/01 00:02:23;;;;;;;4.40;4.10;;;;;;;;;;5088183;28;20177;-51
2022/07/01 00:04:49;;;;;;;4.93;4.53;;;;;;;;;;5088426;28;20184;-51
2022/07/01 00:07:16;;;;;;;5.00;4.60;;;;;;;;;;5087203;28;20216;-51
2022/07/01 00:09:42;;;;;;;4.77;3.90;;;;;;;;;;5088832;28;20169;-51
2022/07/01 00:12:08;;;;;;;5.20;4.70;;;;;;;;;;5087752;28;20188;-51
2022/07/01 00:14:35;;;;;;;4.63;4.27;;;;;;;;;;5094031;28;20236;-51
2022/07/01 00:17:01;;;;;;;5.40;5.00;;;;;;;;;;5108342;28;20182;-51
2022/07/01 00:19:27;;;;;;;4.70;4.40;;;;;;;;;;5108525;28;20175;-51
2022/07/01 00:21:53;;;;;;;4.70;4.30;;;;;;;;;;5107029;28;20176;-51
2022/07/01 00:24:19;;;;;;;4.40;4.10;;;;;;;;;;5104244;28;20181;-52
2022/07/01 00:26:45;;;;;;;4.33;4.03;;;;;;;;;;5087804;28;20207;-51
2022/07/01 00:29:12;;;;;;;4.70;4.30;;;;;;;;;;5087483;28;20172;-51
2022/07/01 00:31:38;;;;;;;4.17;3.87;;;;;;;;;;5087651;28;20228;-51
2022/07/01 00:34:04;;;;;;;4.63;4.23;;;;;;;;;;5087866;28;20263;-51
2022/07/01 00:36:30;;;;;;;4.23;3.93;;;;;;;;;;5086982;28;20161;-51
2022/07/01 00:38:56;;;;;;;5.43;4.87;;;;;;;;;;5098280;28;20187;-51
2022/07/01 00:41:22;;;;;;;5.63;5.17;;;;;;;;;;5107525;28;20160;-52
2022/07/01 00:43:48;;;;;;;4.83;4.43;;;;;;;;;;5098590;28;20291;-51
2022/07/01 00:46:14;;;;;;;4.50;4.10;;;;;;;;;;5107872;28;20676;-51
2022/07/01 00:48:40;;;;;;;4.33;4.03;;;;;;;;;;5108408;28;20155;-51
2022/07/01 00:51:07;;;;;;;4.83;4.43;;;;;;;;;;5107232;28;20274;-51
2022/07/01 00:53:33;;;;;;;4.50;4.20;;;;;;;;;;5107001;28;20162;-51
2022/07/01 00:55:59;;;;;;;4.33;3.93;;;;;;;;;;5107174;28;20180;-51
2022/07/01 00:58:28;;;;;;;4.30;4.00;;;;;;;;;;5107687;28;20225;-51
2022/07/01 01:00:54;;;;;;;5.00;4.27;;;;;;;;;;5106662;28;20182;-51
2022/07/01 01:03:20;;;;;;;4.50;4.20;;;;;;;;;;5107808;28;20154;-50
2022/07/01 01:05:46;;;;;;;4.60;4.20;;;;;;;;;;5107469;28;20771;-51
2022/07/01 01:08:13;;;;;;;4.80;4.40;;;;;;;;;;5106294;28;20247;-51
2022/07/01 01:10:39;;;;;;;4.80;4.40;;;;;;;;;;5107020;28;20242;-51
2022/07/01 01:13:05;;;;;;;4.60;4.20;;;;;;;;;;5107742;28;20144;-51
2022/07/01 01:15:32;;;;;;;4.57;4.27;;;;;;;;;;5107109;28;20209;-51
2022/07/01 01:17:58;;;;;;;4.07;3.77;;;;;;;;;;5107138;28;20162;-51
2022/07/01 01:20:24;;;;;;;4.00;3.70;;;;;;;;;;5098284;28;20612;-51
2022/07/01 01:22:50;;;;;;;4.47;4.13;;;;;;;;;;5106437;28;20618;-51
2022/07/01 01:25:16;;;;;;;4.10;3.80;;;;;;;;;;5088030;28;20179;-50
2022/07/01 01:27:43;;;;;;;4.20;3.80;;;;;;;;;;5107110;28;20187;-50
2022/07/01 01:30:11;;;;;;;7.17;6.77;;;;;;;;;;5106899;28;20171;-50
2022/07/01 01:32:37;;;;;;;3.93;3.57;;;;;;;;;;5107151;28;20278;-51
2022/07/01 01:35:04;;;;;;;3.53;3.30;;;;;;;;;;5106637;28;20183;-51
2022/07/01 01:37:30;;;;;;;4.13;3.83;;;;;;;;;;5106321;28;20151;-51
2022/07/01 01:39:58;;;;;;;3.93;3.63;;;;;;;;;;5106460;28;20183;-51
2022/07/01 01:42:24;;;;;;;3.73;3.43;;;;;;;;;;5105480;28;20780;-51
2022/07/01 01:44:50;;;;;;;3.60;3.40;;;;;;;;;;5106528;28;20168;-51
2022/07/01 01:47:16;;;;;;;3.07;2.87;;;;;;;;;;5106756;28;20181;-52
2022/07/01 01:49:42;;;;;;;5.27;3.60;;;;;;;;;;5106548;28;20545;-52
2022/07/01 01:52:08;;;;;;;3.53;3.23;;;;;;;;;;5105081;28;20274;-51
2022/07/01 01:54:36;;;;;;;5.13;3.37;;;;;;;;;;5099666;28;20175;-52
2022/07/01 01:57:02;;;;;;;3.50;2.93;;;;;;;;;;5086530;28;20230;-52
2022/07/01 01:59:36;;;;;;;3.27;2.93;;;;;;;;;;5086036;28;20720;-52
2022/07/01 02:02:02;;;;;;;3.60;3.30;;;;;;;;;;5067926;28;20209;-52
2022/07/01 02:04:28;;;;;;;3.30;3.10;;;;;;;;;;5086134;28;20236;-51
2022/07/01 02:06:54;;;;;;;3.40;3.10;;;;;;;;;;5085529;28;21158;-53
2022/07/01 02:09:21;;;;;;;3.40;3.10;;;;;;;;;;5085522;28;20468;-52
2022/07/01 02:11:47;;;;;;;3.53;3.23;;;;;;;;;;5086175;28;20182;-51
2022/07/01 02:14:13;;;;;;;3.83;3.53;;;;;;;;;;5086422;28;20183;-52
2022/07/01 02:16:39;;;;;;;3.50;3.07;;;;;;;;;;5086254;28;20671;-52
2022/07/01 02:19:06;;;;;;;3.30;3.10;;;;;;;;;;5086043;28;20169;-52
2022/07/01 02:21:32;;;;;;;3.40;3.10;;;;;;;;;;5066673;28;20211;-52
2022/07/01 02:23:58;;;;;;;3.40;3.10;;;;;;;;;;5085639;28;20573;-52
2022/07/01 02:26:24;;;;;;;4.20;3.40;;;;;;;;;;5085769;28;20707;-52
2022/07/01 02:28:50;;;;;;;3.57;3.27;;;;;;;;;;5067736;28;20184;-52
2022/07/01 02:31:16;;;;;;;3.27;2.97;;;;;;;;;;5086268;28;20180;-52
2022/07/01 02:33:42;;;;;;;4.03;3.50;;;;;;;;;;5086646;28;20545;-52
2022/07/01 02:36:08;;;;;;;3.10;2.80;;;;;;;;;;5085919;28;20178;-52
2022/07/01 02:38:34;;;;;;;3.63;3.33;;;;;;;;;;5085365;28;20661;-52
2022/07/01 02:41:00;;;;;;;4.27;3.83;;;;;;;;;;5086031;28;20652;-51
2022/07/01 02:43:26;;;;;;;4.53;3.20;;;;;;;;;;5101110;28;20610;-50
2022/07/01 02:45:52;;;;;;;3.50;3.07;;;;;;;;;;5106611;28;20199;-51
2022/07/01 02:48:18;;;;;;;2.80;2.60;;;;;;;;;;5106043;28;20586;-52
2022/07/01 02:50:45;;;;;;;4.97;3.47;;;;;;;;;;5106230;28;20512;-49
2022/07/01 02:53:11;;;;;;;3.90;3.60;;;;;;;;;;5108061;28;20205;-51
2022/07/01 02:55:37;;;;;;;4.13;3.13;;;;;;;;;;5110478;28;20513;-51
2022/07/01 02:58:04;;;;;;;3.30;3.07;;;;;;;;;;5109739;28;20642;-51
2022/07/01 03:00:30;;;;;;;3.77;3.43;;;;;;;;;;5109961;28;20232;-51
2022/07/01 03:02:56;;;;;;;4.80;3.93;;;;;;;;;;5109954;28;20169;-51
2022/07/01 03:05:22;;;;;;;4.60;3.43;;;;;;;;;;5109742;28;20187;-51
2022/07/01 03:07:48;;;;;;;4.20;3.53;;;;;;;;;;5109129;28;20202;-51
2022/07/01 03:10:15;;;;;;;4.83;3.70;;;;;;;;;;5109377;28;20536;-51
2022/07/01 03:12:41;;;;;;;4.03;3.40;;;;;;;;;;5110029;28;20164;-51
2022/07/01 03:15:09;;;;;;;3.50;3.20;;;;;;;;;;5109706;28;20536;-51
2022/07/01 03:17:38;;;;;;;5.03;3.73;;;;;;;;;;5110393;28;20156;-51
2022/07/01 03:20:05;;;;;;;3.93;3.60;;;;;;;;;;5109549;28;20186;-51
2022/07/01 03:22:32;;;;;;;3.93;3.57;;;;;;;;;;5108706;28;20249;-51
2022/07/01 03:24:58;;;;;;;4.13;3.73;;;;;;;;;;5109374;28;20273;-51
2022/07/01 03:27:25;;;;;;;3.50;3.20;;;;;;;;;;5109671;28;20243;-50
2022/07/01 03:29:51;;;;;;;4.30;3.90;;;;;;;;;;5109522;28;20175;-51
2022/07/01 03:32:17;;;;;;;4.63;4.13;;;;;;;;;;5109502;28;20617;-51
2022/07/01 03:34:45;;;;;;;5.23;4.63;;;;;;;;;;5109642;28;20617;-51
2022/07/01 03:37:12;;;;;;;3.73;3.43;;;;;;;;;;5108706;28;20160;-51
2022/07/01 03:39:39;;;;;;;4.57;3.97;;;;;;;;;;5109744;28;20183;-50
2022/07/01 03:42:06;;;;;;;4.60;4.20;;;;;;;;;;5106463;28;20635;-51
2022/07/01 03:44:39;;;;;;;4.57;3.97;;;;;;;;;;5109272;28;20251;-51
2022/07/01 03:47:06;;;;;;;4.00;3.60;;;;;;;;;;5109214;28;20713;-51
2022/07/01 03:49:32;;;;;;;3.80;3.40;;;;;;;;;;5109225;28;20191;-51
2022/07/01 03:51:59;;;;;;;5.90;3.77;;;;;;;;;;5107231;28;20576;-50
2022/07/01 03:54:32;;;;;;;4.57;3.60;;;;;;;;;;5109075;28;20172;-51
2022/07/01 03:56:59;;;;;;;3.93;3.53;;;;;;;;;;5108871;28;20167;-50
2022/07/01 03:59:28;;;;;;;5.33;4.17;;;;;;;;;;5109121;28;20198;-50
2022/07/01 04:01:55;;;;;;;4.57;3.93;;;;;;;;;;5108915;28;20633;-51
2022/07/01 04:04:21;;;;;;;3.73;3.23;;;;;;;;;;5108045;28;20187;-51
2022/07/01 04:06:48;;;;;;;5.73;4.23;;;;;;;;;;5107682;28;20452;-51
2022/07/01 04:09:15;;;;;;;6.43;5.93;;;;;;;;;;5108806;28;20185;-51
2022/07/01 04:11:42;;;;;;;3.50;3.20;;;;;;;;;;5108312;28;20182;-50
2022/07/01 04:14:09;;;;;;;3.70;3.40;;;;;;;;;;5108365;28;20170;-51
2022/07/01 04:16:35;;;;;;;3.83;3.47;;;;;;;;;;5108714;28;20473;-50
2022/07/01 04:19:01;;;;;;;3.77;3.07;;;;;;;;;;5108300;28;20544;-51
2022/07/01 04:24:13;;;;;;;5.83;2.87;;;;;;;;;;5108607;28;20564;-51
2022/07/01 04:26:39;;;;;;;3.80;3.50;;;;;;;;;;5107848;28;20211;-51
2022/07/01 04:29:07;;;;;;;3.77;3.47;;;;;;;;;;5108135;28;20163;-50
2022/07/01 04:31:33;;;;;;;4.20;3.10;;;;;;;;;;5107543;28;20248;-51
2022/07/01 04:33:59;;;;;;;3.70;3.03;;;;;;;;;;5108281;28;20687;-50
2022/07/01 04:36:27;;;;;;;3.90;3.10;;;;;;;;;;5107321;28;20167;-51
2022/07/01 04:38:53;;;;;;;4.40;3.07;;;;;;;;;;5107704;28;20170;-51
2022/07/01 04:44:04;;;;;;;4.17;3.53;;;;;;;;;;5096467;28;20226;-51
2022/07/01 04:46:30;;;;;;;3.53;3.00;;;;;;;;;;5107437;28;20215;-51
2022/07/01 04:48:56;;;;;;;3.83;3.47;;;;;;;;;;5107842;28;20163;-52
2022/07/01 04:51:22;;;;;;;3.10;2.90;;;;;;;;;;5106984;28;20700;-52
2022/07/01 04:53:49;;;;;;;5.90;3.97;;;;;;;;;;5107217;28;20164;-51
2022/07/01 04:56:15;;;;;;;3.27;3.07;;;;;;;;;;5107501;28;20634;-52
2022/07/01 04:58:41;;;;;;;4.20;3.00;;;;;;;;;;5107966;28;20188;-51
2022/07/01 05:01:07;;;;;;;3.43;3.07;;;;;;;;;;5107624;28;20179;-52
2022/07/01 05:03:34;;;;;;;3.00;2.80;;;;;;;;;;5089256;28;20179;-52
2022/07/01 05:06:00;;;;;;;4.78;3.35;;;;;;;;;;5105919;28;20403;-51
2022/07/01 05:08:26;;;;;;;3.20;3.00;;;;;;;;;;5106469;28;20243;-51
2022/07/01 05:10:52;;;;;;;5.37;3.00;;;;;;;;;;5107283;28;20814;-51
2022/07/01 05:13:18;;;;;;;3.20;2.97;;;;;;;;;;5106874;28;20172;-51
2022/07/01 05:15:44;;;;;;;3.00;2.70;;;;;;;;;;5107213;28;20521;-51
2022/07/01 05:23:39;;;;;;;2.60;2.40;;;;;;;;;;5106942;28;20181;-51
2022/07/01 05:26:06;;;;;;;4.10;2.60;;;;;;;;;;5106857;28;20207;-51
2022/07/01 05:28:32;;;;;;;4.13;2.77;;;;;;;;;;5107678;28;20156;-50
2022/07/01 05:30:58;;;;;;;3.10;2.90;;;;;;;;;;5106814;28;20605;-51
2022/07/01 05:33:26;;;;;;;4.57;2.67;;;;;;;;;;5107371;28;20170;-51
2022/07/01 05:35:52;;;;;;;3.33;2.40;;;;;;;;;;5107401;28;20163;-51
2022/07/01 05:38:18;;;;;;;4.00;2.67;;;;;;;;;;5105459;28;20693;-51
2022/07/01 05:40:44;;;;;;;3.10;2.80;;;;;;;;;;5106877;28;20537;-50
2022/07/01 05:43:11;;;;;;;2.87;2.60;;;;;;;;;;5104584;28;20223;-50
2022/07/01 05:45:37;;;;;;;3.07;2.67;;;;;;;;;;5107328;28;20677;-50
2022/07/01 05:48:03;;;;;;;3.40;3.10;;;;;;;;;;5106935;28;20209;-51
2022/07/01 05:50:29;;;;;;;4.17;2.80;;;;;;;;;;5106937;28;20191;-50
2022/07/01 05:52:55;;;;;;;4.83;2.90;;;;;;;;;;5105853;28;20242;-51
2022/07/01 05:55:22;;;;;;;3.00;2.80;;;;;;;;;;5106791;28;20167;-51
2022/07/01 05:57:48;;;;;;;4.63;3.20;;;;;;;;;;5106925;28;20685;-50
2022/07/01 06:00:14;;;;;;;2.70;2.50;;;;;;;;;;5106749;28;20938;-50
2022/07/01 06:02:40;;;;;;;5.00;2.70;;;;;;;;;;5106402;28;20171;-50
2022/07/01 06:05:07;;;;;;;3.13;2.93;;;;;;;;;;5107043;28;20179;-51
2022/07/01 06:07:33;;;;;;;2.80;2.60;;;;;;;;;;5105725;28;20274;-50
2022/07/01 06:09:59;;;;;;;3.90;3.60;;;;;;;;;;5106235;28;20550;-50
2022/07/01 06:12:25;;;;;;;3.00;2.77;;;;;;;;;;5106038;28;20206;-50
2022/07/01 06:14:51;;;;;;;5.23;2.80;;;;;;;;;;5106190;28;20167;-50
2022/07/01 06:17:17;;;;;;;3.27;2.90;;;;;;;;;;5106128;28;20160;-50
2022/07/01 06:19:43;;;;;;;4.53;2.90;;;;;;;;;;5107272;28;20182;-50
2022/07/01 06:22:09;;;;;;;3.73;3.43;;;;;;;;;;5105330;28;20171;-49
2022/07/01 06:24:35;;;;;;;4.03;3.70;;;;;;;;;;5106607;28;20191;-50
2022/07/01 06:27:03;;;;;;;3.90;3.40;;;;;;;;;;5107653;28;20700;-51
2022/07/01 06:29:30;;;;;;;3.90;2.80;;;;;;;;;;5110928;28;20514;-50
2022/07/01 06:32:03;;;;;;;3.93;2.87;;;;;;;;;;5110006;28;20204;-51
2022/07/01 06:34:29;;;;;;;5.03;3.27;;;;;;;;;;5110650;28;20167;-50
2022/07/01 06:36:55;;;;;;;3.77;3.37;;;;;;;;;;5109283;28;20191;-50
2022/07/01 06:39:21;;;;;;;5.67;3.07;;;;;;;;;;5110787;28;20175;-49
2022/07/01 06:41:48;;;;;;;3.13;2.83;;;;;;;;;;5110366;28;20163;-50
2022/07/01 06:44:14;;;;;;;3.33;3.03;;;;;;;;;;5097910;28;20227;-49
2022/07/01 06:46:40;;;;;;;3.70;3.07;;;;;;;;;;5110091;28;20657;-50
2022/07/01 06:49:06;;;;;;;2.93;2.50;;;;;;;;;;5091739;28;20159;-50
2022/07/01 06:51:32;;;;;;;4.20;3.00;;;;;;;;;;5109019;28;20243;-50
2022/07/01 06:53:58;;;;;;;4.67;2.73;;;;;;;;;;5110394;28;20167;-51
2022/07/01 06:56:24;;;;;;;3.20;3.00;;;;;;;;;;5110315;28;20193;-52
2022/07/01 06:58:50;;;;;;;3.73;3.10;;;;;;;;;;5110448;28;20639;-48
2022/07/01 07:01:16;;;;;;;4.23;3.13;;;;;;;;;;5110553;28;20167;-50
2022/07/01 07:03:42;;;;;;;4.33;2.80;;;;;;;;;;5110007;28;20159;-50
2022/07/01 07:06:09;;;;;;;3.40;3.20;;;;;;;;;;5110086;28;20212;-50
2022/07/01 07:08:35;;;;;;;6.57;3.63;;;;;;;;;;5109815;28;20152;-51
2022/07/01 07:11:02;;;;;;;3.85;3.40;;;;;;;;;;5110398;28;20159;-50
2022/07/01 07:13:29;;;;;;;3.67;3.37;;;;;;;;;;5109988;28;20155;-50
2022/07/01 07:15:55;;;;;;;3.70;3.07;;;;;;;;;;5110134;28;20179;-50
2022/07/01 07:18:21;;;;;;;3.67;3.07;;;;;;;;;;5109883;28;20204;-50
2022/07/01 07:20:47;;;;;;;3.23;2.90;;;;;;;;;;5109922;28;20167;-50
2022/07/01 07:23:13;;;;;;;5.40;4.10;;;;;;;;;;5106980;28;20151;-49
2022/07/01 07:25:40;;;;;;;3.43;3.13;;;;;;;;;;5104434;28;20719;-50
2022/07/01 07:28:06;;;;;;;3.30;3.00;;;;;;;;;;5109227;28;20683;-50
2022/07/01 07:30:32;;;;;;;4.43;3.10;;;;;;;;;;5109686;28;20674;-50
2022/07/01 07:32:58;;;;;;;4.33;2.97;;;;;;;;;;5109397;28;20198;-50
2022/07/01 07:35:24;;;;;;;5.33;3.37;;;;;;;;;;5109687;28;20216;-51
2022/07/01 07:37:50;;;;;;;3.20;2.90;;;;;;;;;;5108343;28;20151;-50
2022/07/01 07:40:19;;;;;;;3.80;2.83;;;;;;;;;;5109436;28;20708;-51
2022/07/01 07:42:46;;;;;;;3.83;2.87;;;;;;;;;;5106918;28;20657;-51
2022/07/01 07:45:13;;;;;;;3.30;2.93;;;;;;;;;;5109381;28;20167;-51
2022/07/01 07:47:41;;;;;;;3.97;3.33;;;;;;;;;;5108887;28;20641;-51
2022/07/01 07:50:08;;;;;;;3.27;3.07;;;;;;;;;;5109471;28;20625;-51
2022/07/01 07:52:34;;;;;;;5.10;3.30;;;;;;;;;;5107810;28;20262;-51
2022/07/01 07:55:02;;;;;;;3.67;3.17;;;;;;;;;;5109438;28;20160;-51
2022/07/01 07:57:28;;;;;;;3.50;3.20;;;;;;;;;;5109059;28;20155;-51
2022/07/01 07:59:54;;;;;;;3.33;3.07;;;;;;;;;;5108943;28;20172;-51
2022/07/01 08:02:20;;;;;;;3.57;3.27;;;;;;;;;;5109009;28;20758;-51
2022/07/01 08:04:46;;;;;;;3.80;3.50;;;;;;;;;;5108893;28;20233;-51
2022/07/01 08:07:12;;;;;;;5.40;3.03;;;;;;;;;;5107933;28;20571;-51
2022/07/01 08:09:38;;;;;;;3.40;3.10;;;;;;;;;;5108831;28;20629;-52
2022/07/01 08:12:04;;;;;;;4.03;3.63;;;;;;;;;;5108587;28;20175;-51
2022/07/01 08:14:31;;;;;;;3.67;3.10;;;;;;;;;;5108392;28;20204;-51
2022/07/01 08:16:57;;;;;;;3.63;3.33;;;;;;;;;;5090161;28;20212;-52
2022/07/01 08:19:23;;;;;;;5.90;3.50;;;;;;;;;;5108331;28;20182;-51
2022/07/01 08:21:49;;;;;;;3.43;3.13;;;;;;;;;;5106894;28;20668;-51
2022/07/01 08:24:15;;;;;;;3.63;3.13;;;;;;;;;;5107627;28;20522;-51
2022/07/01 08:26:41;;;;;;;3.83;3.53;;;;;;;;;;5107899;28;20564;-50
2022/07/01 08:29:14;;;;;;;3.97;3.53;;;;;;;;;;5108295;28;20156;-51
2022/07/01 08:31:40;;;;;;;5.83;3.40;;;;;;;;;;5108110;28;20160;-50
2022/07/01 08:34:06;;;;;;;5.17;3.30;;;;;;;;;;5107516;28;20151;-50
2022/07/01 08:36:33;;;;;;;3.23;2.83;;;;;;;;;;5106781;28;20183;-50
2022/07/01 08:38:59;;;;;;;5.00;3.63;;;;;;;;;;5107946;28;20167;-50
2022/07/01 08:41:25;;;;;;;3.37;3.17;;;;;;;;;;5107552;28;20164;-50
2022/07/01 08:43:51;;;;;;;3.63;3.13;;;;;;;;;;5096285;28;20317;-50
2022/07/01 08:46:17;;;;;;;4.40;3.33;;;;;;;;;;5107038;28;20171;-50
2022/07/01 08:48:44;;;;;;;3.43;3.00;;;;;;;;;;5107499;28;20152;-51
2022/07/01 08:51:10;;;;;;;3.40;3.10;;;;;;;;;;5106390;28;20316;-50
2022/07/01 08:53:37;;;;;;;3.30;3.10;;;;;;;;;;5106671;28;20151;-50
2022/07/01 08:58:51;;;;;;;3.10;2.80;;;;;;;;;;5107477;28;20170;-50
2022/07/01 09:01:20;;;;;;;3.13;2.83;;;;;;;;;;5089245;28;20587;-50
2022/07/01 09:03:47;;;;;;;6.23;3.83;;;;;;;;;;5107796;28;20159;-50
2022/07/01 09:06:16;;;;;;;4.00;3.70;;;;;;;;;;5106586;28;20183;-50
2022/07/01 09:08:42;;;;;;;5.77;3.20;;;;;;;;;;5107235;28;20159;-49
2022/07/01 09:11:16;;;;;;;3.90;3.30;;;;;;;;;;5107402;28;20207;-49
2022/07/01 09:13:42;;;;;;;5.97;3.23;;;;;;;;;;5107497;28;20197;-47
2022/07/01 09:16:13;;;;;;;3.60;3.30;;;;;;;;;;5107003;28;20186;-48
2022/07/01 09:18:39;;;;;;;3.80;3.50;;;;;;;;;;5107385;28;20546;-48
2022/07/01 09:21:08;;;;;;;3.10;2.70;;;;;;;;;;5107439;28;20160;-48
2022/07/01 09:23:34;;;;;;;3.33;2.97;;;;;;;;;;5106613;28;20210;-47
2022/07/01 09:26:00;;;;;;;3.73;2.90;;;;;;;;;;5106789;28;20166;-48
2022/07/01 09:28:27;;;;;;;3.60;2.50;;;;;;;;;;5107403;28;20746;-48
2022/07/01 09:30:55;;;;;;;3.23;2.70;;;;;;;;;;5107574;28;20163;-49
2022/07/01 09:33:23;;;;;;;3.57;2.67;;;;;;;;;;5089101;28;20221;-48
2022/07/01 09:35:50;;;;;;;4.13;2.53;;;;;;;;;;5107571;28;20163;-48
2022/07/01 09:38:17;;;;;;;2.53;2.33;;;;;;;;;;5106245;28;20626;-47
2022/07/01 09:40:56;;;;;;;7.10;2.77;;;;;;;;;;5106714;28;20629;-49
2022/07/01 09:43:27;;;;;;;2.63;2.43;;;;;;;;;;5104260;28;20253;-48
2022/07/01 09:46:01;;;;;;;2.87;2.60;;;;;;;;;;5106565;28;20167;-48
2022/07/01 09:48:42;;;;;;;2.10;2.00;;;;;;;;;;5107231;28;20750;-47
2022/07/01 09:51:10;;;;;;;3.37;3.00;;;;;;;;;;5105822;28;20199;-48
2022/07/01 09:53:36;;;;;;;3.83;2.57;;;;;;;;;;5106043;28;20208;-47
2022/07/01 09:56:03;;;;;;;3.27;2.90;;;;;;;;;;5106985;28;20267;-47
2022/07/01 09:58:32;;;;;;;2.20;2.07;;;;;;;;;;5106388;28;20262;-48
2022/07/01 10:00:58;;;;;;;2.60;2.10;;;;;;;;;;5106575;28;20180;-48
2022/07/01 10:03:26;;;;;;;4.63;2.73;;;;;;;;;;5087949;28;20645;-48
2022/07/01 10:05:57;;;;;;;3.23;2.93;;;;;;;;;;5106748;28;20834;-48
2022/07/01 10:08:37;;;;;;;3.20;2.70;;;;;;;;;;5105628;28;20220;-49
2022/07/01 10:11:23;;;;;;;5.70;2.33;;;;;;;;;;5106119;28;20634;-48
2022/07/01 10:13:49;;;;;;;2.40;2.23;;;;;;;;;;5106498;28;20167;-48
2022/07/01 10:16:17;;;;;;;3.33;2.53;;;;;;;;;;5106498;28;20195;-48
2022/07/01 10:18:43;;;;;;;5.30;2.10;;;;;;;;;;5106725;28;20178;-48
2022/07/01 10:21:11;;;;;;;2.50;2.30;;;;;;;;;;5087256;28;20274;-48
2022/07/01 10:23:42;;;;;;;3.90;2.10;;;;;;;;;;5105855;28;20626;-48
2022/07/01 10:26:10;;;;;;;3.67;2.00;;;;;;;;;;5105425;28;20171;-48
2022/07/01 10:28:47;;;;;;;2.13;2.03;;;;;;;;;;5106129;28;20636;-48
2022/07/01 10:31:17;;;;;;;2.80;1.93;;;;;;;;;;5106142;28;20679;-49
2022/07/01 10:33:51;;;;;;;2.37;2.10;;;;;;;;;;5106260;28;20163;-48
2022/07/01 10:36:17;;;;;;;3.40;2.07;;;;;;;;;;5105069;28;20180;-49
2022/07/01 10:39:10;;;;;;;3.37;2.00;;;;;;;;;;5105612;28;20184;-49
2022/07/01 10:41:40;;;;;;;2.57;2.10;;;;;;;;;;5085809;28;20166;-49
2022/07/01 10:44:08;;;;;;;3.73;2.07;;;;;;;;;;5085877;28;20580;-49
2022/07/01 10:46:57;;;;;;;2.00;1.80;;;;;;;;;;5105978;28;20268;-49
2022/07/01 10:49:35;;;;;;;2.70;1.90;;;;;;;;;;5105921;28;20206;-48
2022/07/01 10:52:01;;;;;;;2.63;2.00;;;;;;;;;;5105513;28;20297;-49
2022/07/01 10:54:36;;;;;;;3.07;2.13;;;;;;;;;;5106138;28;20235;-49
2022/07/01 10:57:18;;;;;;;2.30;2.10;;;;;;;;;;5105986;28;20559;-49
2022/07/01 10:59:48;;;;;;;2.73;2.00;;;;;;;;;;5106396;28;20205;-49
2022/07/01 11:02:16;;;;;;;3.97;2.03;;;;;;;;;;5087174;28;20359;-49
2022/07/01 11:04:45;;;;;;;2.53;2.33;;;;;;;;;;5106180;28;20501;-48
2022/07/01 11:07:14;;;;;;;2.17;2.00;;;;;;;;;;5104965;28;20205;-48
2022/07/01 11:09:40;;;;;;;1.90;1.80;;;;;;;;;;5106009;28;20168;-48
2022/07/01 11:12:07;;;;;;;2.63;2.43;;;;;;;;;;5105428;28;20248;-48
2022/07/01 11:14:37;;;;;;;2.17;2.00;;;;;;;;;;5108957;28;20229;-49
2022/07/01 11:17:04;;;;;;;2.47;2.00;;;;;;;;;;5109013;28;20479;-48
2022/07/01 11:19:30;;;;;;;4.43;2.20;;;;;;;;;;5109806;28;20198;-48
2022/07/01 11:21:56;;;;;;;1.90;1.80;;;;;;;;;;5108120;28;20198;-49
2022/07/01 11:24:23;;;;;;;2.47;2.20;;;;;;;;;;5102531;28;20188;-48
2022/07/01 11:26:49;;;;;;;4.10;2.10;;;;;;;;;;5109573;28;20641;-49
2022/07/01 11:29:24;;;;;;;2.37;1.90;;;;;;;;;;5109421;28;20176;-48
2022/07/01 11:31:50;;;;;;;3.43;1.93;;;;;;;;;;5108828;28;20160;-48
2022/07/01 11:34:16;;;;;;;2.00;1.90;;;;;;;;;;5090845;28;20172;-49
2022/07/01 11:39:32;;;;;;;2.33;1.97;;;;;;;;;;5109550;28;20196;-48
2022/07/01 11:42:00;;;;;;;4.07;2.03;;;;;;;;;;5108351;28;20173;-48
2022/07/01 11:44:30;;;;;;;3.33;2.60;;;;;;;;;;5106801;28;20592;-48
2022/07/01 11:46:56;;;;;;;2.73;2.30;;;;;;;;;;5108574;28;20184;-48
2022/07/01 11:49:23;;;;;;;2.20;2.00;;;;;;;;;;5109146;28;20673;-49
2022/07/01 11:51:57;;;;;;;2.20;2.00;;;;;;;;;;5107083;28;20209;-49
2022/07/01 11:54:23;;;;;;;2.63;1.90;;;;;;;;;;5091162;28;20640;-48
2022/07/01 11:56:50;;;;;;;2.10;1.90;;;;;;;;;;5109070;28;20247;-48
2022/07/01 11:59:16;;;;;;;2.73;2.53;;;;;;;;;;5108975;28;20176;-48
2022/07/01 12:01:45;;;;;;;2.43;2.20;;;;;;;;;;5108804;28;20232;-48
2022/07/01 12:04:11;;;;;;;4.57;4.27;;;;;;;;;;5109653;28;20678;-48
2022/07/01 12:06:39;;;;;;;3.80;1.90;;;;;;;;;;5108153;28;20189;-48
2022/07/01 12:09:05;;;;;;;2.53;2.30;;;;;;;;;;5090407;28;20263;-48
2022/07/01 12:11:31;;;;;;;3.23;2.00;;;;;;;;;;5108668;28;20170;-48
2022/07/01 12:13:58;;;;;;;2.23;2.03;;;;;;;;;;5108922;28;20247;-48
2022/07/01 12:16:25;;;;;;;2.17;1.80;;;;;;;;;;5108031;28;20164;-48
2022/07/01 12:18:52;;;;;;;2.43;1.90;;;;;;;;;;5108694;28;20158;-48
2022/07/01 12:21:18;;;;;;;7.93;3.93;;;;;;;;;;5107984;28;20173;-48
2022/07/01 12:24:02;;;;;;;1.97;1.87;;;;;;;;;;5108084;28;20170;-48
2022/07/01 12:26:35;;;;;;;3.47;2.27;;;;;;;;;;5087537;28;20162;-48
2022/07/01 12:29:01;;;;;;;2.00;1.80;;;;;;;;;;5070580;28;20285;-48
2022/07/01 12:31:28;;;;;;;1.63;1.53;;;;;;;;;;5107980;28;20634;-48
2022/07/01 12:33:54;;;;;;;2.83;2.00;;;;;;;;;;5108886;28;20668;-48
2022/07/01 12:36:20;;;;;;;2.13;2.00;;;;;;;;;;5107983;28;20257;-48
2022/07/01 12:38:46;;;;;;;1.97;1.60;;;;;;;;;;5108483;28;20210;-48
2022/07/01 12:41:33;;;;;;;2.37;2.17;;;;;;;;;;5107492;28;20174;-48
2022/07/01 12:43:59;;;;;;;4.93;1.80;;;;;;;;;;5095520;28;20230;-48
2022/07/01 12:46:32;;;;;;;1.90;1.60;;;;;;;;;;5107187;28;20217;-48
2022/07/01 12:48:58;;;;;;;1.83;1.70;;;;;;;;;;5107896;28;20154;-49
2022/07/01 12:51:31;;;;;;;2.53;2.10;;;;;;;;;;5107251;28;20191;-48
2022/07/01 12:53:57;;;;;;;2.47;2.07;;;;;;;;;;5107838;28;20629;-48
2022/07/01 12:56:24;;;;;;;2.53;1.60;;;;;;;;;;5108077;28;20166;-48
2022/07/01 12:58:53;;;;;;;2.33;1.90;;;;;;;;;;5108120;28;20521;-49
2022/07/01 13:01:20;;;;;;;2.40;2.07;;;;;;;;;;5099067;28;20628;-48
2022/07/01 13:03:46;;;;;;;2.30;1.87;;;;;;;;;;5107265;28;20269;-49
2022/07/01 13:06:13;;;;;;;1.70;1.60;;;;;;;;;;5107190;28;20178;-48
2022/07/01 13:08:39;;;;;;;2.30;2.10;;;;;;;;;;5107116;28;20203;-49
2022/07/01 13:11:06;;;;;;;2.33;1.70;;;;;;;;;;5088818;28;20171;-48
2022/07/01 13:13:32;;;;;;;2.13;1.80;;;;;;;;;;5108032;28;20622;-48
2022/07/01 13:15:59;;;;;;;4.13;2.27;;;;;;;;;;5107500;28;20179;-48
2022/07/01 13:18:25;;;;;;;2.03;1.83;;;;;;;;;;5090087;28;20652;-48
2022/07/01 13:20:51;;;;;;;4.83;2.87;;;;;;;;;;5107398;28;20254;-49
2022/07/01 13:23:17;;;;;;;2.07;1.83;;;;;;;;;;5106008;28;20191;-48
2022/07/01 13:25:44;;;;;;;1.87;1.70;;;;;;;;;;5107100;28;20601;-49
2022/07/01 13:28:10;;;;;;;2.60;2.20;;;;;;;;;;5107507;28;20452;-49
2022/07/01 13:30:39;;;;;;;1.80;1.70;;;;;;;;;;5107252;28;21001;-50
2022/07/01 13:33:05;;;;;;;4.27;2.10;;;;;;;;;;5106911;28;20714;-48
2022/07/01 13:35:31;;;;;;;1.60;1.50;;;;;;;;;;5107232;28;20190;-49
2022/07/01 13:37:57;;;;;;;3.13;1.80;;;;;;;;;;5106489;28;20254;-48
2022/07/01 13:40:23;;;;;;;2.53;1.80;;;;;;;;;;5106558;28;20174;-49
2022/07/01 13:42:49;;;;;;;1.80;1.70;;;;;;;;;;5104265;28;20702;-49
2022/07/01 13:45:15;;;;;;;2.03;1.73;;;;;;;;;;5106488;28;20195;-49
2022/07/01 13:47:41;;;;;;;2.90;1.63;;;;;;;;;;5106503;28;20280;-49
2022/07/01 13:50:08;;;;;;;1.83;1.73;;;;;;;;;;5106492;28;20175;-48
2022/07/01 13:52:34;;;;;;;2.20;2.00;;;;;;;;;;5106065;28;20179;-49
2022/07/01 13:55:00;;;;;;;2.10;1.90;;;;;;;;;;5107236;28;20490;-49
2022/07/01 13:57:26;;;;;;;3.73;3.53;;;;;;;;;;5106873;28;20700;-50
2022/07/01 13:59:53;;;;;;;5.63;5.33;;;;;;;;;;5106756;28;20179;-50
2022/07/01 14:02:19;;;;;;;4.13;3.93;;;;;;;;;;5106827;28;20164;-49
2022/07/01 14:04:46;;;;;;;2.27;1.57;;;;;;;;;;5102145;28;20258;-49
2022/07/01 14:07:12;;;;;;;2.07;1.87;;;;;;;;;;5105952;28;20696;-49
2022/07/01 14:09:40;;;;;;;2.57;2.37;;;;;;;;;;5087921;28;20183;-49
2022/07/01 14:12:06;;;;;;;2.10;2.00;;;;;;;;;;5106385;28;20159;-49
2022/07/01 14:14:32;;;;;;;1.70;1.60;;;;;;;;;;5088145;28;20239;-49
2022/07/01 14:17:05;;;;;;;2.17;1.50;;;;;;;;;;5106309;28;20580;-49
2022/07/01 14:19:31;;;;;;;1.70;1.60;;;;;;;;;;5106990;28;20246;-48
2022/07/01 14:21:59;;;;;;;2.33;1.67;;;;;;;;;;5105691;28;20170;-49
2022/07/01 14:24:25;;;;;;;2.07;1.87;;;;;;;;;;5106600;28;20673;-58
2022/07/01 14:26:51;;;;;;;2.10;1.70;;;;;;;;;;5087768;28;20191;-48
2022/07/01 14:29:17;;;;;;;3.50;2.10;;;;;;;;;;5087764;28;20179;-49
2022/07/01 14:31:43;;;;;;;2.10;1.73;;;;;;;;;;5106622;28;20189;-48
2022/07/01 14:34:09;;;;;;;1.70;1.60;;;;;;;;;;5107056;28;20610;-49
2022/07/01 14:36:43;;;;;;;2.57;1.97;;;;;;;;;;5105273;28;20728;-48
2022/07/01 14:39:09;;;;;;;2.13;1.97;;;;;;;;;;5107066;28;20220;-48
2022/07/01 14:41:35;;;;;;;1.77;1.67;;;;;;;;;;5106476;28;20691;-49
2022/07/01 14:44:08;;;;;;;2.23;1.93;;;;;;;;;;5104773;28;20330;-49
2022/07/01 14:46:34;;;;;;;2.40;2.00;;;;;;;;;;5106668;28;20159;-48
2022/07/01 14:49:00;;;;;;;2.10;1.90;;;;;;;;;;5109502;28;20196;-48
2022/07/01 14:51:26;;;;;;;3.37;1.93;;;;;;;;;;5109362;28;20677;-49
2022/07/01 14:53:52;;;;;;;3.00;2.07;;;;;;;;;;5111187;28;20274;-49
2022/07/01 14:56:18;;;;;;;1.73;1.63;;;;;;;;;;5109502;28;20173;-49
2022/07/01 14:58:44;;;;;;;2.07;1.57;;;;;;;;;;5110810;28;20645;-49
2022/07/01 15:01:11;;;;;;;2.97;1.90;;;;;;;;;;5109600;28;20570;-49